Time;durP1;ratioP1;P1;durP2;ratioP2;P2;SDS_P1;SDS_P2;PMS_P1;PMS_P2;Temp;Humidity;BMP_temperature;BMP_pressure;BME280_temperature;BME280_humidity;BME280_pressure;Samples;Min_cycle;Max_cycle;Signal;HPM_P1;HPM_P2
2023/01/20 00:02:00;;;;;;;9.53;8.03;;;0.90;99.90;;;;;;5013604;28;20275;-70
2023/01/20 00:04:26;;;;;;;10.83;9.27;;;0.80;99.90;;;;;;5010382;28;20679;-70
2023/01/20 00:06:52;;;;;;;13.48;9.95;;;0.90;99.90;;;;;;5004276;28;20261;-70
2023/01/20 00:09:18;;;;;;;9.80;8.73;;;0.90;99.90;;;;;;5010179;28;20695;-70
2023/01/20 00:11:43;;;;;;;11.52;8.88;;;1.00;99.90;;;;;;5014795;28;20225;-70
2023/01/20 00:14:10;;;;;;;12.47;9.87;;;1.00;99.90;;;;;;5022324;28;20204;-70
2023/01/20 00:16:35;;;;;;;10.25;8.88;;;0.90;99.90;;;;;;5018245;28;20671;-70
2023/01/20 00:19:01;;;;;;;11.90;9.10;;;0.90;99.90;;;;;;5020352;28;20192;-70
2023/01/20 00:21:27;;;;;;;10.03;8.97;;;0.90;99.90;;;;;;5023091;28;20675;-70
2023/01/20 00:23:53;;;;;;;10.53;8.40;;;0.90;99.90;;;;;;5024143;28;20224;-71
2023/01/20 00:26:20;;;;;;;9.60;8.03;;;0.90;99.90;;;;;;5018931;28;20276;-71
2023/01/20 00:28:47;;;;;;;9.37;7.73;;;0.80;99.90;;;;;;5021599;28;20196;-71
2023/01/20 00:31:18;;;;;;;8.53;7.30;;;0.90;99.90;;;;;;5026059;28;20189;-71
2023/01/20 00:33:44;;;;;;;10.07;7.53;;;0.80;99.90;;;;;;5019922;28;20248;-71
2023/01/20 00:36:11;;;;;;;8.63;7.77;;;0.80;99.90;;;;;;5020932;28;20258;-71
2023/01/20 00:38:37;;;;;;;9.63;8.27;;;0.90;99.90;;;;;;5027200;28;20178;-71
2023/01/20 00:41:02;;;;;;;10.73;7.90;;;0.90;99.90;;;;;;5029528;28;20303;-71
2023/01/20 00:43:28;;;;;;;12.70;7.90;;;0.90;99.90;;;;;;5018879;28;20691;-71
2023/01/20 00:45:53;;;;;;;9.33;8.33;;;0.90;99.90;;;;;;5016459;28;20201;-71
2023/01/20 00:48:19;;;;;;;10.13;7.60;;;0.90;99.90;;;;;;5021064;28;20662;-71
2023/01/20 00:50:45;;;;;;;8.57;7.57;;;0.80;99.90;;;;;;5018818;28;20216;-71
2023/01/20 00:53:10;;;;;;;7.87;7.07;;;0.80;99.90;;;;;;5015229;28;20266;-71
2023/01/20 00:55:36;;;;;;;10.80;8.27;;;0.80;99.90;;;;;;5023000;28;20689;-71
2023/01/20 00:58:01;;;;;;;9.87;7.43;;;0.80;99.90;;;;;;5020558;28;20203;-71
2023/01/20 01:00:27;;;;;;;8.20;7.33;;;0.70;99.90;;;;;;5018581;28;20186;-71
2023/01/20 01:02:52;;;;;;;9.53;8.07;;;0.60;99.90;;;;;;5010937;28;20201;-71
2023/01/20 01:05:18;;;;;;;8.37;7.57;;;0.60;99.90;;;;;;5020292;28;20580;-71
2023/01/20 01:07:43;;;;;;;9.63;8.10;;;0.60;99.90;;;;;;5017595;28;20173;-71
2023/01/20 01:10:10;;;;;;;9.23;8.03;;;0.60;99.90;;;;;;5018635;28;20184;-72
2023/01/20 01:12:36;;;;;;;9.27;7.53;;;0.60;99.90;;;;;;5018240;28;20539;-71
2023/01/20 01:15:01;;;;;;;8.00;7.07;;;0.60;99.90;;;;;;5021023;28;20173;-71
2023/01/20 01:17:27;;;;;;;9.33;7.03;;;0.70;99.90;;;;;;5010195;28;20275;-71
2023/01/20 01:19:53;;;;;;;10.50;8.33;;;0.70;99.90;;;;;;5017912;28;20681;-71
2023/01/20 01:22:20;;;;;;;9.83;7.73;;;0.60;99.90;;;;;;5020180;28;20839;-71
2023/01/20 01:24:46;;;;;;;8.47;7.57;;;0.50;99.90;;;;;;5030690;28;20318;-71
2023/01/20 01:27:12;;;;;;;9.40;7.40;;;0.50;99.90;;;;;;5020740;28;20213;-71
2023/01/20 01:29:38;;;;;;;9.63;7.47;;;0.50;99.90;;;;;;5016593;28;20181;-71
2023/01/20 01:32:05;;;;;;;12.07;8.20;;;0.50;99.90;;;;;;5026477;28;20187;-71
2023/01/20 01:34:31;;;;;;;12.70;7.73;;;0.50;99.90;;;;;;5021302;28;20208;-71
2023/01/20 01:36:56;;;;;;;8.93;8.03;;;0.50;99.90;;;;;;5016152;28;20207;-71
2023/01/20 01:39:22;;;;;;;9.17;8.20;;;0.40;99.90;;;;;;5019606;28;20177;-71
2023/01/20 01:41:48;;;;;;;9.23;7.90;;;0.40;99.90;;;;;;5023175;28;20272;-71
2023/01/20 01:44:14;;;;;;;9.00;7.80;;;0.40;99.90;;;;;;5017753;28;20204;-71
2023/01/20 01:46:41;;;;;;;10.20;7.73;;;0.50;99.90;;;;;;5021946;28;20263;-71
2023/01/20 01:49:13;;;;;;;9.90;8.17;;;0.50;99.90;;;;;;5012948;28;20181;-71
2023/01/20 01:52:02;;;;;;;8.93;8.03;;;0.50;99.90;;;;;;5022787;28;20182;-71
2023/01/20 01:54:33;;;;;;;9.10;8.20;;;0.50;99.90;;;;;;5016284;28;20243;-71
2023/01/20 01:56:59;;;;;;;9.97;8.13;;;0.40;99.90;;;;;;5010312;28;20185;-71
2023/01/20 01:59:25;;;;;;;8.43;7.60;;;0.40;99.90;;;;;;5018358;28;20192;-71
2023/01/20 02:01:52;;;;;;;9.87;7.60;;;0.40;99.90;;;;;;5012189;28;20188;-71
2023/01/20 02:04:27;;;;;;;9.07;7.90;;;0.30;99.90;;;;;;5017318;28;20282;-71
2023/01/20 02:07:10;;;;;;;9.57;7.57;;;0.30;99.90;;;;;;5022350;28;20204;-71
2023/01/20 02:09:37;;;;;;;9.73;7.77;;;0.20;99.90;;;;;;5014431;28;20276;-70
2023/01/20 02:12:07;;;;;;;9.70;7.83;;;0.20;99.90;;;;;;5014473;28;20185;-71
2023/01/20 02:14:46;;;;;;;7.80;7.00;;;0.20;99.90;;;;;;5019173;28;20200;-71
2023/01/20 02:17:32;;;;;;;8.73;7.53;;;0.20;99.90;;;;;;5023635;28;20633;-71
2023/01/20 02:20:25;;;;;;;8.00;7.20;;;0.20;99.90;;;;;;5009184;28;20176;-70
2023/01/20 02:23:09;;;;;;;8.13;7.10;;;0.30;99.90;;;;;;5017960;28;20177;-70
2023/01/20 02:25:52;;;;;;;8.50;7.70;;;0.20;99.90;;;;;;5013293;28;20605;-71
2023/01/20 02:28:59;;;;;;;7.10;6.20;;;0.10;99.90;;;;;;5018615;28;20188;-71
2023/01/20 02:31:46;;;;;;;7.97;7.17;;;0.10;99.90;;;;;;5009189;28;20229;-71
2023/01/20 02:34:19;;;;;;;8.37;7.47;;;0.10;99.90;;;;;;5005372;28;20746;-72
2023/01/20 02:37:15;;;;;;;8.03;6.70;;;0.10;99.90;;;;;;5013832;28;20181;-70
2023/01/20 02:39:54;;;;;;;8.37;7.40;;;0.10;99.90;;;;;;5017788;28;20601;-70
2023/01/20 02:42:20;;;;;;;9.67;7.30;;;0.10;99.90;;;;;;5007003;28;20276;-71
2023/01/20 02:45:03;;;;;;;8.90;8.10;;;0.10;99.90;;;;;;5010784;28;20778;-71
2023/01/20 02:47:34;;;;;;;9.00;6.80;;;0.10;99.90;;;;;;5010855;28;20200;-70
2023/01/20 02:50:08;;;;;;;10.67;8.83;;;0.10;99.90;;;;;;5013872;28;20208;-71
2023/01/20 02:52:38;;;;;;;8.90;7.97;;;0.10;99.90;;;;;;5019493;28;20172;-71
2023/01/20 02:55:08;;;;;;;8.97;7.33;;;0.20;99.90;;;;;;5012915;28;20271;-71
2023/01/20 02:57:43;;;;;;;8.47;7.63;;;0.20;99.90;;;;;;5012467;28;20182;-71
2023/01/20 03:00:15;;;;;;;8.77;7.40;;;0.30;99.90;;;;;;5010860;28;20192;-71
2023/01/20 03:02:43;;;;;;;8.83;7.33;;;0.30;99.90;;;;;;5007315;28;20182;-71
2023/01/20 03:05:14;;;;;;;7.47;6.77;;;0.20;99.90;;;;;;5014545;28;20527;-71
2023/01/20 03:07:42;;;;;;;8.40;6.70;;;0.20;99.90;;;;;;5014153;28;20216;-71
2023/01/20 03:10:12;;;;;;;8.73;7.10;;;0.20;99.90;;;;;;5013113;28;20197;-71
2023/01/20 03:12:55;;;;;;;8.93;7.40;;;0.20;99.90;;;;;;5012852;28;20185;-71
2023/01/20 03:15:25;;;;;;;7.87;7.07;;;0.30;99.90;;;;;;5013490;28;20388;-71
2023/01/20 03:17:51;;;;;;;8.47;7.40;;;0.30;99.90;;;;;;5013079;28;20173;-73
2023/01/20 03:20:17;;;;;;;9.07;7.20;;;0.20;99.90;;;;;;5012557;28;20227;-71
2023/01/20 03:22:42;;;;;;;9.00;7.23;;;0.20;99.90;;;;;;5009308;28;20174;-71
2023/01/20 03:25:10;;;;;;;9.43;7.83;;;0.20;99.90;;;;;;5016186;28;20187;-75
2023/01/20 03:27:35;;;;;;;8.03;7.07;;;0.20;99.90;;;;;;5016423;28;20217;-72
2023/01/20 03:30:01;;;;;;;9.90;8.30;;;0.20;99.90;;;;;;5006848;28;20550;-72
2023/01/20 03:32:28;;;;;;;9.90;8.00;;;0.20;99.90;;;;;;5009707;28;20232;-72
2023/01/20 03:34:55;;;;;;;8.57;7.53;;;0.20;99.90;;;;;;5014307;28;20196;-73
2023/01/20 03:37:21;;;;;;;7.97;7.00;;;0.20;99.90;;;;;;5006512;28;20552;-72
2023/01/20 03:39:48;;;;;;;9.63;7.70;;;0.20;99.90;;;;;;5018265;28;20232;-72
2023/01/20 03:42:23;;;;;;;10.00;7.20;;;0.20;99.90;;;;;;5015122;28;20188;-72
2023/01/20 03:45:00;;;;;;;8.03;6.93;;;0.20;99.90;;;;;;5016981;28;20666;-72
2023/01/20 03:47:57;;;;;;;9.80;8.23;;;0.20;99.90;;;;;;5017400;28;20298;-72
2023/01/20 03:50:40;;;;;;;9.80;7.83;;;0.10;99.90;;;;;;5002865;28;20181;-72
2023/01/20 03:53:13;;;;;;;8.77;7.23;;;0.20;99.90;;;;;;5009777;28;20208;-72
2023/01/20 03:55:50;;;;;;;8.50;6.67;;;0.10;99.90;;;;;;5006599;28;20224;-72
2023/01/20 03:58:21;;;;;;;8.57;7.30;;;0.10;99.90;;;;;;5016836;28;20196;-72
2023/01/20 04:00:49;;;;;;;7.57;6.83;;;0.20;99.90;;;;;;5018815;28;20177;-72
2023/01/20 04:03:20;;;;;;;7.90;7.17;;;0.20;99.90;;;;;;5009588;28;20421;-72
2023/01/20 04:05:47;;;;;;;8.47;7.63;;;0.20;99.90;;;;;;5006024;28;20702;-72
2023/01/20 04:08:16;;;;;;;10.77;7.13;;;0.20;99.90;;;;;;5014865;28;20188;-72
2023/01/20 04:10:46;;;;;;;8.00;6.87;;;0.40;99.90;;;;;;5022171;28;20195;-73
2023/01/20 04:13:12;;;;;;;7.93;6.43;;;0.50;99.90;;;;;;5016803;28;20303;-73
2023/01/20 04:15:43;;;;;;;10.20;7.43;;;0.50;99.90;;;;;;5019819;28;20650;-73
2023/01/20 04:18:18;;;;;;;7.87;6.80;;;0.60;99.90;;;;;;5024994;28;20694;-73
2023/01/20 04:20:49;;;;;;;10.07;7.67;;;0.60;99.90;;;;;;5020396;28;20541;-73
2023/01/20 04:23:40;;;;;;;10.33;9.27;;;0.70;99.90;;;;;;5019280;28;20211;-73
2023/01/20 04:26:06;;;;;;;10.50;8.43;;;0.70;99.90;;;;;;5013481;28;20201;-72
2023/01/20 04:28:31;;;;;;;9.53;7.47;;;0.60;99.90;;;;;;5022184;28;20660;-73
2023/01/20 04:30:57;;;;;;;8.40;7.60;;;0.60;99.90;;;;;;5018426;28;20808;-73
2023/01/20 04:33:23;;;;;;;7.67;6.97;;;0.50;99.90;;;;;;5021433;28;20209;-73
2023/01/20 04:35:48;;;;;;;8.23;7.43;;;0.50;99.90;;;;;;5020131;28;20178;-73
2023/01/20 04:38:14;;;;;;;9.23;7.63;;;0.50;99.90;;;;;;5013802;28;20204;-71
2023/01/20 04:40:40;;;;;;;9.50;7.53;;;0.50;99.90;;;;;;5016186;28;20182;-73
2023/01/20 04:43:06;;;;;;;8.40;7.37;;;0.60;99.90;;;;;;5021765;28;20302;-71
2023/01/20 04:45:31;;;;;;;7.23;6.53;;;0.60;99.90;;;;;;5028261;28;20169;-72
2023/01/20 04:47:57;;;;;;;7.87;7.17;;;0.60;99.90;;;;;;5017136;28;20327;-73
2023/01/20 04:50:23;;;;;;;8.57;7.57;;;0.70;99.90;;;;;;5022927;28;20531;-73
2023/01/20 04:52:48;;;;;;;8.07;7.27;;;0.70;99.90;;;;;;5025914;28;20179;-73
2023/01/20 04:55:14;;;;;;;8.77;7.90;;;0.70;99.90;;;;;;5024529;28;20238;-72
2023/01/20 04:57:39;;;;;;;10.17;7.83;;;0.70;99.90;;;;;;5018533;28;20177;-72
2023/01/20 05:00:06;;;;;;;9.30;7.77;;;0.60;99.90;;;;;;5022149;28;20209;-72
2023/01/20 05:02:32;;;;;;;9.43;8.10;;;0.60;99.90;;;;;;5018863;28;20264;-73
2023/01/20 05:04:57;;;;;;;9.17;7.67;;;0.60;99.90;;;;;;5009522;28;20279;-72
2023/01/20 05:07:23;;;;;;;8.83;7.27;;;0.60;99.90;;;;;;5015332;28;20209;-73
2023/01/20 05:09:48;;;;;;;9.87;8.00;;;0.60;99.90;;;;;;5025936;28;20185;-73
2023/01/20 05:12:14;;;;;;;8.40;7.17;;;0.60;99.90;;;;;;5013138;28;20185;-73
2023/01/20 05:14:40;;;;;;;9.73;7.63;;;0.60;99.90;;;;;;5022358;28;20275;-73
2023/01/20 05:17:05;;;;;;;8.50;7.13;;;0.70;99.90;;;;;;5010362;28;20254;-73
2023/01/20 05:19:31;;;;;;;9.00;8.10;;;0.60;99.90;;;;;;5013014;28;20181;-72
2023/01/20 05:21:58;;;;;;;8.47;6.87;;;0.60;99.90;;;;;;5022870;28;20185;-72
2023/01/20 05:24:23;;;;;;;7.97;7.17;;;0.60;99.90;;;;;;5015294;28;20204;-72
2023/01/20 05:26:49;;;;;;;10.37;7.67;;;0.70;99.90;;;;;;5024735;28;20573;-73
2023/01/20 05:29:15;;;;;;;8.27;7.23;;;0.70;99.90;;;;;;5013056;28;20204;-73
2023/01/20 05:31:43;;;;;;;9.10;8.00;;;0.70;99.90;;;;;;5021504;28;20259;-73
2023/01/20 05:34:09;;;;;;;7.80;6.70;;;0.70;99.90;;;;;;5017198;28;20573;-73
2023/01/20 05:36:35;;;;;;;8.37;7.57;;;0.70;99.90;;;;;;5019917;28;20585;-73
2023/01/20 05:39:01;;;;;;;10.60;7.77;;;0.70;99.90;;;;;;5012341;28;20259;-72
2023/01/20 05:41:26;;;;;;;8.20;7.30;;;0.70;99.90;;;;;;5022556;28;20234;-72
2023/01/20 05:43:54;;;;;;;7.60;6.90;;;0.70;99.90;;;;;;5019730;28;21532;-72
2023/01/20 05:46:20;;;;;;;8.20;7.40;;;0.70;99.90;;;;;;5006709;28;20302;-71
2023/01/20 05:48:46;;;;;;;11.60;7.97;;;0.80;99.90;;;;;;5016372;28;20326;-73
2023/01/20 05:51:11;;;;;;;11.13;8.40;;;0.70;99.90;;;;;;5016715;28;20192;-73
2023/01/20 05:53:37;;;;;;;9.83;7.73;;;0.80;99.90;;;;;;5017756;28;20202;-73
2023/01/20 05:56:04;;;;;;;9.07;8.27;;;0.70;99.90;;;;;;5024825;28;20282;-72
2023/01/20 05:58:31;;;;;;;8.33;7.53;;;0.80;99.90;;;;;;5028206;28;20272;-72
2023/01/20 06:01:08;;;;;;;8.37;6.73;;;0.70;99.90;;;;;;5018790;28;20193;-72
2023/01/20 06:03:34;;;;;;;8.03;7.13;;;0.70;99.90;;;;;;5004479;28;20619;-71
2023/01/20 06:06:01;;;;;;;8.47;7.40;;;0.80;99.90;;;;;;5009665;28;20213;-71
2023/01/20 06:08:26;;;;;;;9.13;7.40;;;0.90;99.90;;;;;;5007241;28;20533;-72
2023/01/20 06:10:52;;;;;;;9.13;7.87;;;0.90;99.90;;;;;;5011605;28;20753;-73
2023/01/20 06:13:18;;;;;;;9.27;7.60;;;0.90;99.90;;;;;;5006710;28;20292;-73
2023/01/20 06:15:43;;;;;;;9.93;8.03;;;1.00;99.90;;;;;;5009244;28;20620;-72
2023/01/20 06:18:11;;;;;;;9.60;8.30;;;1.00;99.90;;;;;;5006797;28;20193;-72
2023/01/20 06:20:37;;;;;;;7.83;7.07;;;1.00;99.90;;;;;;5009174;28;20556;-73
2023/01/20 06:23:03;;;;;;;8.17;7.03;;;1.10;99.90;;;;;;5009398;28;20223;-73
2023/01/20 06:25:29;;;;;;;10.07;7.77;;;1.00;99.90;;;;;;5011671;28;20181;-73
2023/01/20 06:27:54;;;;;;;15.90;8.23;;;1.00;99.90;;;;;;5013382;28;20705;-73
2023/01/20 06:30:20;;;;;;;9.50;7.37;;;1.10;99.90;;;;;;5018368;28;20858;-72
2023/01/20 06:32:47;;;;;;;8.43;7.63;;;1.10;99.90;;;;;;5016731;28;20185;-70
2023/01/20 06:35:13;;;;;;;10.07;8.60;;;1.20;99.90;;;;;;5018591;28;20256;-70
2023/01/20 06:37:38;;;;;;;8.57;7.60;;;1.20;99.90;;;;;;5011988;28;20268;-70
2023/01/20 06:40:04;;;;;;;11.70;9.00;;;1.10;99.90;;;;;;5015466;28;20185;-72
2023/01/20 06:42:31;;;;;;;9.77;8.30;;;1.20;99.90;;;;;;5002996;28;20265;-73
2023/01/20 06:44:56;;;;;;;9.53;8.57;;;1.10;99.90;;;;;;5014637;28;20192;-73
2023/01/20 06:47:22;;;;;;;11.20;8.80;;;1.20;99.90;;;;;;5010318;28;20567;-73
2023/01/20 06:49:47;;;;;;;9.57;7.50;;;1.30;99.90;;;;;;5020107;28;20640;-73
2023/01/20 06:52:13;;;;;;;10.87;8.77;;;1.30;99.90;;;;;;5013343;28;20186;-73
2023/01/20 06:54:39;;;;;;;10.23;9.10;;;1.30;99.90;;;;;;5003651;28;20308;-73
2023/01/20 06:57:04;;;;;;;12.23;9.27;;;1.10;99.90;;;;;;5009791;28;20664;-73
2023/01/20 06:59:30;;;;;;;12.53;10.47;;;1.00;99.90;;;;;;5009869;28;20186;-73
2023/01/20 07:01:56;;;;;;;12.80;10.53;;;1.00;99.90;;;;;;5019920;28;20197;-75
2023/01/20 07:04:21;;;;;;;13.10;10.63;;;1.10;99.90;;;;;;5013387;28;20251;-72
2023/01/20 07:06:47;;;;;;;12.50;10.37;;;1.10;99.90;;;;;;5011535;28;20295;-72
2023/01/20 07:09:12;;;;;;;14.63;10.87;;;1.10;99.90;;;;;;5010483;28;20250;-73
2023/01/20 07:11:39;;;;;;;12.03;10.73;;;1.00;99.90;;;;;;5015396;28;20204;-73
2023/01/20 07:14:05;;;;;;;11.90;10.17;;;0.90;99.90;;;;;;5013109;28;20200;-73
2023/01/20 07:16:31;;;;;;;12.70;11.03;;;0.90;99.90;;;;;;5012776;28;20197;-74
2023/01/20 07:18:57;;;;;;;13.00;10.70;;;0.80;99.90;;;;;;5012126;28;20192;-73
2023/01/20 07:21:23;;;;;;;11.97;10.10;;;0.80;99.90;;;;;;5018979;28;20209;-72
2023/01/20 07:23:49;;;;;;;11.33;10.23;;;0.70;99.90;;;;;;5021781;28;20687;-72
2023/01/20 07:26:17;;;;;;;12.20;11.00;;;0.80;99.90;;;;;;5012798;28;20206;-73
2023/01/20 07:28:43;;;;;;;12.57;11.17;;;0.80;99.90;;;;;;5006641;28;20532;-73
2023/01/20 07:31:16;;;;;;;15.57;11.30;;;0.80;99.90;;;;;;5020596;28;20196;-73
2023/01/20 07:33:42;;;;;;;15.00;13.00;;;0.80;99.90;;;;;;5019843;28;20671;-76
2023/01/20 07:36:08;;;;;;;15.37;12.80;;;0.90;99.90;;;;;;5021789;28;20192;-74
2023/01/20 07:38:34;;;;;;;17.13;13.13;;;0.70;99.90;;;;;;5013483;28;20742;-74
2023/01/20 07:41:01;;;;;;;16.93;13.80;;;0.70;99.90;;;;;;5025403;28;20263;-75
2023/01/20 07:43:27;;;;;;;16.50;13.77;;;0.80;99.90;;;;;;5021542;28;20223;-73
2023/01/20 07:46:00;;;;;;;17.00;12.97;;;0.80;99.90;;;;;;5025112;28;20208;-74
2023/01/20 07:48:30;;;;;;;15.13;13.53;;;0.90;99.90;;;;;;5016221;28;20663;-74
2023/01/20 07:51:06;;;;;;;18.23;14.97;;;0.90;99.90;;;;;;5017076;28;20629;-74
2023/01/20 07:53:34;;;;;;;18.83;14.50;;;0.90;99.90;;;;;;5009272;28;20636;-74
2023/01/20 07:56:01;;;;;;;16.77;13.53;;;0.90;99.90;;;;;;5022970;28;20188;-76
2023/01/20 07:58:27;;;;;;;17.30;14.60;;;0.80;99.90;;;;;;5018615;28;20185;-77
2023/01/20 08:00:53;;;;;;;19.43;15.57;;;0.80;99.90;;;;;;5017244;28;20188;-75
2023/01/20 08:03:18;;;;;;;18.30;14.93;;;0.60;99.90;;;;;;5021560;28;20208;-75
2023/01/20 08:05:44;;;;;;;19.43;15.20;;;0.70;99.90;;;;;;5022678;28;20280;-72
2023/01/20 08:08:09;;;;;;;17.53;14.80;;;0.60;99.90;;;;;;5023445;28;20177;-72
2023/01/20 08:10:35;;;;;;;19.37;15.40;;;0.80;99.90;;;;;;5026075;28;20552;-72
2023/01/20 08:13:01;;;;;;;17.73;14.57;;;0.80;99.90;;;;;;5018955;28;20592;-71
2023/01/20 08:15:27;;;;;;;20.07;16.13;;;0.90;99.90;;;;;;5022060;28;20224;-71
2023/01/20 08:17:57;;;;;;;16.50;13.43;;;0.90;99.90;;;;;;5018990;28;20181;-71
2023/01/20 08:20:22;;;;;;;17.63;14.93;;;0.90;99.90;;;;;;5022180;28;20532;-71
2023/01/20 08:22:48;;;;;;;16.13;14.23;;;0.90;99.90;;;;;;5021157;28;20203;-72
2023/01/20 08:25:14;;;;;;;17.77;14.17;;;0.90;99.90;;;;;;5009752;28;20184;-72
2023/01/20 08:27:40;;;;;;;18.93;14.33;;;0.90;99.90;;;;;;5017074;28;20250;-72
2023/01/20 08:30:06;;;;;;;16.70;14.37;;;1.00;99.90;;;;;;5018556;28;20216;-73
2023/01/20 08:32:31;;;;;;;21.33;14.80;;;1.00;99.90;;;;;;5018648;28;20193;-72
2023/01/20 08:34:58;;;;;;;18.37;14.87;;;1.10;99.90;;;;;;5022638;28;20197;-72
2023/01/20 08:37:24;;;;;;;18.87;15.77;;;1.20;99.90;;;;;;5013752;28;20547;-71
2023/01/20 08:39:49;;;;;;;15.63;14.00;;;1.20;99.90;;;;;;5013758;28;20193;-72
2023/01/20 08:42:15;;;;;;;19.27;14.00;;;1.10;99.90;;;;;;5008917;28;20189;-71
2023/01/20 08:44:41;;;;;;;20.23;16.67;;;1.20;99.90;;;;;;5015217;28;20201;-72
2023/01/20 08:47:06;;;;;;;17.53;14.83;;;1.20;99.90;;;;;;5016784;28;20239;-72
2023/01/20 08:49:32;;;;;;;15.73;13.80;;;1.00;99.90;;;;;;5016550;28;20891;-73
2023/01/20 08:51:57;;;;;;;19.57;15.27;;;0.80;99.90;;;;;;5022519;28;20256;-71
2023/01/20 08:54:23;;;;;;;16.43;14.30;;;1.00;99.90;;;;;;5020999;28;20200;-70
2023/01/20 08:56:50;;;;;;;19.23;14.40;;;1.00;99.90;;;;;;5019616;28;20660;-70
2023/01/20 08:59:16;;;;;;;18.57;15.50;;;1.20;99.90;;;;;;5016575;28;20208;-74
2023/01/20 09:01:42;;;;;;;23.37;15.60;;;1.20;99.90;;;;;;5013510;28;20294;-70
2023/01/20 09:04:08;;;;;;;20.10;15.63;;;1.20;99.90;;;;;;5018317;28;20197;-70
2023/01/20 09:06:40;;;;;;;22.10;16.87;;;1.30;99.90;;;;;;5011462;28;20213;-71
2023/01/20 09:09:06;;;;;;;18.23;14.97;;;1.20;99.90;;;;;;5024882;28;20191;-71
2023/01/20 09:11:32;;;;;;;20.40;15.07;;;1.20;99.90;;;;;;5022734;28;20193;-71
2023/01/20 09:13:58;;;;;;;21.77;14.93;;;1.30;99.90;;;;;;5014722;28;20258;-71
2023/01/20 09:16:23;;;;;;;19.63;15.57;;;1.30;99.90;;;;;;5019760;28;20271;-72
2023/01/20 09:18:49;;;;;;;19.93;15.97;;;1.20;99.90;;;;;;5021655;28;20180;-72
2023/01/20 09:21:15;;;;;;;20.70;16.60;;;1.30;99.90;;;;;;5023848;28;20238;-72
2023/01/20 09:23:41;;;;;;;21.50;16.07;;;1.40;99.90;;;;;;5018729;28;20376;-71
2023/01/20 09:26:08;;;;;;;22.37;16.60;;;1.50;99.90;;;;;;5010985;28;20229;-72
2023/01/20 09:28:34;;;;;;;21.90;17.00;;;1.50;99.90;;;;;;5016951;28;20268;-72
2023/01/20 09:31:06;;;;;;;20.93;16.33;;;1.50;99.90;;;;;;5019251;28;20609;-71
2023/01/20 09:33:34;;;;;;;20.87;16.20;;;1.60;99.90;;;;;;5013324;28;20252;-72
2023/01/20 09:36:01;;;;;;;21.37;16.77;;;1.60;99.90;;;;;;5018585;28;20277;-71
2023/01/20 09:44:16;;;;;;;21.27;15.47;;;1.90;99.90;;;;;;5018358;28;20295;-72
2023/01/20 09:47:20;;;;;;;23.93;17.30;;;2.00;99.90;;;;;;5017280;28;20237;-74
2023/01/20 09:53:07;;;;;;;17.83;15.27;;;2.20;99.90;;;;;;5018581;28;20207;-72
2023/01/20 09:55:54;;;;;;;23.77;17.67;;;2.40;99.90;;;;;;5016426;28;20182;-72
2023/01/20 09:58:39;;;;;;;24.60;17.55;;;2.50;99.90;;;;;;5017511;28;20181;-72
2023/01/20 10:01:23;;;;;;;19.02;11.68;;;2.60;99.90;;;;;;5007554;28;20312;-72
2023/01/20 10:03:55;;;;;;;19.15;15.25;;;2.80;99.90;;;;;;5010830;28;20203;-72
2023/01/20 10:06:37;;;;;;;16.98;14.85;;;3.00;99.90;;;;;;5015761;28;20215;-72
2023/01/20 10:09:16;;;;;;;17.50;13.93;;;3.00;99.90;;;;;;5018980;28;20674;-72
2023/01/20 10:11:47;;;;;;;20.17;15.90;;;3.10;99.90;;;;;;5020416;28;20180;-72
2023/01/20 10:14:22;;;;;;;17.75;15.50;;;3.10;99.90;;;;;;5021794;28;20218;-73
2023/01/20 10:17:06;;;;;;;20.90;14.90;;;3.10;99.90;;;;;;5014994;28;20188;-72
2023/01/20 10:19:55;;;;;;;17.90;14.57;;;3.00;99.90;;;;;;5013525;28;20181;-72
2023/01/20 10:22:50;;;;;;;18.45;15.10;;;3.00;99.90;;;;;;5014283;28;20790;-72
2023/01/20 10:25:45;;;;;;;17.77;15.30;;;2.90;99.90;;;;;;5022800;28;20278;-73
2023/01/20 10:28:14;;;;;;;20.50;15.32;;;2.70;99.90;;;;;;5012182;28;20189;-72
2023/01/20 10:30:40;;;;;;;17.95;14.50;;;2.60;99.90;;;;;;5017542;28;20185;-72
2023/01/20 10:33:13;;;;;;;20.70;15.27;;;2.60;99.90;;;;;;5022425;28;22575;-72
2023/01/20 10:35:45;;;;;;;18.15;15.45;;;2.40;99.90;;;;;;5021075;28;20186;-72
2023/01/20 10:38:55;;;;;;;18.45;15.07;;;2.40;99.90;;;;;;5018175;28;20195;-73
2023/01/20 10:41:39;;;;;;;19.17;15.77;;;2.50;99.90;;;;;;5008168;28;20212;-72
2023/01/20 10:44:12;;;;;;;22.13;16.55;;;2.40;99.90;;;;;;5013459;28;20578;-73
2023/01/20 10:47:16;;;;;;;19.98;16.13;;;2.50;99.90;;;;;;5005664;28;20197;-73
2023/01/20 10:50:00;;;;;;;18.13;15.98;;;2.40;99.90;;;;;;5006092;28;20236;-74
2023/01/20 10:53:03;;;;;;;20.67;16.05;;;2.20;99.90;;;;;;5026623;28;20189;-73
2023/01/20 10:55:50;;;;;;;20.00;16.35;;;2.40;99.90;;;;;;5007116;28;20188;-73
2023/01/20 10:58:19;;;;;;;20.30;15.48;;;2.40;99.90;;;;;;5023844;28;20216;-74
2023/01/20 11:00:45;;;;;;;19.70;15.85;;;2.40;99.90;;;;;;5018037;28;20185;-73
2023/01/20 11:03:17;;;;;;;17.02;15.18;;;2.60;99.90;;;;;;5010853;28;20220;-73
2023/01/20 11:05:45;;;;;;;18.67;15.27;;;2.70;99.90;;;;;;5019730;28;20204;-72
2023/01/20 11:08:23;;;;;;;22.30;16.95;;;2.90;99.90;;;;;;5019392;28;20688;-73
2023/01/20 11:10:58;;;;;;;18.23;16.10;;;3.20;99.90;;;;;;5015780;28;20239;-74
2023/01/20 11:13:24;;;;;;;22.05;15.40;;;3.40;99.90;;;;;;5013275;28;20197;-73
2023/01/20 11:15:55;;;;;;;18.77;14.85;;;3.50;99.90;;;;;;5010376;28;20165;-72
2023/01/20 11:18:26;;;;;;;18.17;15.02;;;3.70;99.90;;;;;;5015737;28;20177;-77
2023/01/20 11:21:10;;;;;;;20.13;15.40;;;4.00;99.90;;;;;;5016326;28;20181;-75
2023/01/20 11:23:56;;;;;;;15.98;14.18;;;3.90;99.90;;;;;;5026360;28;20211;-75
2023/01/20 11:26:23;;;;;;;16.33;13.60;;;3.80;99.90;;;;;;5017613;28;20291;-75
2023/01/20 11:28:54;;;;;;;17.55;12.30;;;4.00;99.90;;;;;;5015037;28;20264;-74
2023/01/20 11:31:21;;;;;;;16.70;14.18;;;4.20;99.90;;;;;;5017250;28;20184;-74
2023/01/20 11:33:55;;;;;;;15.05;13.50;;;4.40;99.90;;;;;;5010154;28;20736;-73
2023/01/20 11:36:24;;;;;;;15.13;13.63;;;4.60;99.90;;;;;;5017692;28;20560;-77
2023/01/20 11:38:52;;;;;;;16.60;14.80;;;4.80;99.90;;;;;;5017970;28;20659;-73
2023/01/20 11:41:19;;;;;;;17.02;14.25;;;5.10;99.90;;;;;;5009738;28;20212;-76
2023/01/20 11:43:46;;;;;;;15.63;13.98;;;5.30;99.90;;;;;;5023520;28;20609;-74
2023/01/20 11:46:22;;;;;;;16.67;14.10;;;5.30;99.90;;;;;;5027393;28;20735;-74
2023/01/20 11:48:48;;;;;;;15.35;13.80;;;5.30;99.90;;;;;;5015930;28;20221;-74
2023/01/20 11:51:20;;;;;;;17.40;14.90;;;5.10;99.90;;;;;;5016466;28;20216;-76
2023/01/20 11:53:46;;;;;;;16.90;14.75;;;4.90;99.90;;;;;;5009727;28;20288;-75
2023/01/20 11:56:23;;;;;;;17.60;15.55;;;4.80;99.90;;;;;;5011112;28;20273;-77
2023/01/20 11:58:54;;;;;;;19.88;13.73;;;4.80;99.90;;;;;;5015564;28;20275;-77
2023/01/20 12:01:49;;;;;;;17.60;14.50;;;5.00;99.90;;;;;;5022858;28;20176;-76
2023/01/20 12:04:21;;;;;;;15.55;13.40;;;4.90;99.90;;;;;;5002909;28;20209;-75
2023/01/20 12:06:53;;;;;;;15.48;13.43;;;4.90;99.90;;;;;;5021025;28;20743;-75
2023/01/20 12:09:26;;;;;;;14.45;12.65;;;4.80;99.90;;;;;;5016079;28;20186;-75
2023/01/20 12:12:00;;;;;;;13.23;11.80;;;4.80;99.90;;;;;;5029478;28;20176;-75
2023/01/20 12:14:36;;;;;;;13.73;12.23;;;4.70;99.90;;;;;;5007595;28;20205;-74
2023/01/20 12:17:02;;;;;;;16.63;13.63;;;4.70;99.90;;;;;;5016089;28;20187;-76
2023/01/20 12:20:08;;;;;;;16.15;13.95;;;4.80;99.90;;;;;;5020141;28;20181;-76
2023/01/20 12:22:41;;;;;;;14.70;12.07;;;4.30;99.90;;;;;;5008656;28;20193;-76
2023/01/20 12:25:13;;;;;;;15.00;13.30;;;3.90;99.90;;;;;;5023625;28;20194;-75
2023/01/20 12:28:04;;;;;;;13.20;11.60;;;3.60;99.90;;;;;;5016408;28;20574;-75
2023/01/20 12:30:41;;;;;;;18.83;13.32;;;3.50;99.90;;;;;;5006553;28;20320;-75
2023/01/20 12:33:17;;;;;;;12.93;10.85;;;3.40;99.90;;;;;;5020548;28;20204;-77
2023/01/20 12:35:53;;;;;;;15.23;12.77;;;3.30;99.90;;;;;;5010468;28;20181;-74
2023/01/20 12:38:21;;;;;;;17.05;12.15;;;3.30;99.90;;;;;;5011326;28;20196;-73
2023/01/20 12:40:53;;;;;;;13.20;11.88;;;3.10;99.90;;;;;;5012414;28;20190;-74
2023/01/20 12:44:08;;;;;;;12.80;11.32;;;3.20;99.90;;;;;;5014625;28;20220;-73
2023/01/20 12:46:55;;;;;;;13.75;10.88;;;3.30;99.90;;;;;;4995667;28;20220;-75
2023/01/20 12:49:33;;;;;;;12.25;10.95;;;3.50;99.90;;;;;;5007808;28;20189;-75
2023/01/20 12:52:10;;;;;;;11.38;10.18;;;3.80;99.90;;;;;;5013706;28;20208;-75
2023/01/20 12:54:47;;;;;;;13.80;11.00;;;4.00;99.90;;;;;;5010455;28;20267;-75
2023/01/20 12:57:15;;;;;;;12.95;10.95;;;4.00;99.90;;;;;;5005047;28;20192;-75
2023/01/20 13:00:06;;;;;;;14.93;10.68;;;3.90;99.90;;;;;;5012756;28;20205;-75
2023/01/20 13:02:49;;;;;;;11.65;9.60;;;3.80;99.90;;;;;;5019583;28;20271;-75
2023/01/20 13:05:31;;;;;;;13.05;10.25;;;3.90;99.90;;;;;;5023213;28;20208;-75
2023/01/20 13:08:02;;;;;;;10.93;9.75;;;4.00;99.90;;;;;;5004851;28;20503;-74
2023/01/20 13:10:46;;;;;;;15.32;11.00;;;4.20;99.90;;;;;;5015496;28;20197;-75
2023/01/20 13:13:32;;;;;;;11.60;9.73;;;4.20;99.90;;;;;;5009595;28;20274;-75